createdAt,value
2023-04-24T00:02:14.574Z,96854.31
2023-04-24T00:04:45.857Z,96851.91
2023-04-24T00:07:18.456Z,96859.53
2023-04-24T00:09:48.526Z,96857.59
2023-04-24T00:12:19.078Z,96862.06
2023-04-24T00:14:49.261Z,96873.75
2023-04-24T00:17:21.417Z,96870.56
2023-04-24T00:19:52.349Z,96868.53
2023-04-24T00:22:24.320Z,96879.81
2023-04-24T00:24:54.824Z,96878.88
2023-04-24T00:27:23.996Z,96875.69
2023-04-24T00:29:53.107Z,96885.28
2023-04-24T00:32:22.339Z,96880.03
2023-04-24T00:34:53.335Z,96886.06
2023-04-24T00:37:23.964Z,96885.84
2023-04-24T00:39:54.937Z,96882.66
2023-04-24T00:42:24.790Z,96884.81
2023-04-24T00:44:54.163Z,96884.69
2023-04-24T00:47:24.608Z,96879.44
2023-04-24T00:49:53.917Z,96892.91
2023-04-24T00:52:26.396Z,96892.56
2023-04-24T00:54:56.601Z,96881.25
2023-04-24T00:57:27.592Z,96876.63
2023-04-24T00:59:57.794Z,96873.66
2023-04-24T01:02:28.051Z,96880.69
2023-04-24T01:04:58.143Z,96878.44
2023-04-24T01:07:30.114Z,96875.47
2023-04-24T01:10:00.652Z,96880.13
2023-04-24T01:12:30.751Z,96874.31
2023-04-24T01:15:00.275Z,96885.69
2023-04-24T01:17:31.216Z,96887.34
2023-04-24T01:20:02.655Z,96892.84
2023-04-24T01:22:33.515Z,96899.00
2023-04-24T01:25:04.548Z,96893.00
2023-04-24T01:27:34.177Z,96894.91
2023-04-24T01:30:03.447Z,96896.97
2023-04-24T01:32:33.114Z,96898.44
2023-04-24T01:35:02.790Z,96906.28
2023-04-24T01:37:34.630Z,96899.00
2023-04-24T01:40:05.294Z,96907.28
2023-04-24T01:42:35.094Z,96901.34
2023-04-24T01:45:07.980Z,96910.81
2023-04-24T01:47:37.819Z,96903.75
2023-04-24T01:50:13.413Z,96903.75
2023-04-24T01:52:43.999Z,96906.94
2023-04-24T01:55:13.678Z,96912.41
2023-04-24T01:57:43.928Z,96909.44
2023-04-24T02:00:16.046Z,96896.56
2023-04-24T02:02:47.530Z,96901.59
2023-04-24T02:05:17.189Z,96915.69
2023-04-24T02:07:47.700Z,96916.50
2023-04-24T02:10:17.675Z,96916.38
2023-04-24T02:12:47.141Z,96917.50
2023-04-24T02:15:18.460Z,96918.38
2023-04-24T02:17:49.240Z,96923.84
2023-04-24T02:20:18.726Z,96917.81
2023-04-24T02:22:49.544Z,96921.88
2023-04-24T02:25:19.992Z,96928.00
2023-04-24T02:27:49.431Z,96943.69
2023-04-24T02:30:19.172Z,96952.38
2023-04-24T02:32:48.550Z,96959.81
2023-04-24T02:35:20.345Z,96963.44
2023-04-24T02:37:51.258Z,96973.00
2023-04-24T02:40:22.899Z,96980.41
2023-04-24T02:42:52.447Z,96975.63
2023-04-24T02:45:21.375Z,96979.47
2023-04-24T02:47:51.342Z,96985.94
2023-04-24T02:50:22.029Z,96986.81
2023-04-24T02:52:53.876Z,96981.97
2023-04-24T02:55:25.048Z,96980.97
2023-04-24T02:57:56.070Z,96987.38
2023-04-24T03:00:26.950Z,96986.16
2023-04-24T03:02:57.047Z,96986.97
2023-04-24T03:05:28.438Z,96985.34
2023-04-24T03:07:59.824Z,96990.44
2023-04-24T03:10:29.411Z,96984.59
2023-04-24T03:12:59.915Z,96990.06
2023-04-24T03:15:30.170Z,96981.47
2023-04-24T03:18:00.313Z,96975.44
2023-04-24T03:20:30.003Z,96974.50
2023-04-24T03:23:02.182Z,96982.38
2023-04-24T03:25:31.181Z,96993.25
2023-04-24T03:28:00.912Z,96992.50
2023-04-24T03:30:30.735Z,96998.75
2023-04-24T03:33:00.803Z,97005.84
2023-04-24T03:35:31.645Z,97004.22
2023-04-24T03:38:01.960Z,97005.22
2023-04-24T03:40:31.984Z,97013.06
2023-04-24T03:43:01.364Z,97015.47
2023-04-24T03:45:31.918Z,97017.72
2023-04-24T03:48:02.438Z,97023.94
2023-04-24T03:50:32.020Z,97029.16
2023-04-24T03:53:03.456Z,97030.63
2023-04-24T03:55:33.826Z,97024.00
2023-04-24T03:58:03.840Z,97019.56
2023-04-24T04:00:34.870Z,97017.19
2023-04-24T04:03:04.987Z,97019.25
2023-04-24T04:05:34.754Z,97024.50
2023-04-24T04:08:06.018Z,97024.91
2023-04-24T04:10:35.641Z,97026.47
2023-04-24T04:13:04.599Z,97028.50
2023-04-24T04:15:33.912Z,97029.28
2023-04-24T04:18:03.558Z,97031.69
2023-04-24T04:20:33.015Z,97035.09
2023-04-24T04:23:02.009Z,97031.56
2023-04-24T04:25:34.225Z,97027.34
2023-04-24T04:28:04.179Z,97025.31
2023-04-24T04:30:34.123Z,97022.53
2023-04-24T04:33:04.096Z,97032.19
2023-04-24T04:35:33.432Z,97030.38
2023-04-24T04:38:03.420Z,97033.97
2023-04-24T04:40:35.355Z,97038.41
2023-04-24T04:43:06.003Z,97046.47
2023-04-24T04:45:36.084Z,97040.63
2023-04-24T04:48:05.864Z,97047.88
2023-04-24T04:50:35.962Z,97049.06
2023-04-24T04:53:06.005Z,97063.13
2023-04-24T04:55:36.842Z,97057.50
2023-04-24T04:58:07.422Z,97059.50
2023-04-24T05:00:37.330Z,97061.34
2023-04-24T05:03:20.002Z,97068.75
2023-04-24T05:05:50.719Z,97070.00
2023-04-24T05:08:27.248Z,97077.44
2023-04-24T05:10:57.763Z,97081.63
2023-04-24T05:13:38.980Z,97090.06
2023-04-24T05:16:09.997Z,97095.28
2023-04-24T05:18:40.036Z,97095.47
2023-04-24T05:21:09.045Z,97084.84
2023-04-24T05:23:37.952Z,97088.84
2023-04-24T05:26:10.153Z,97091.66
2023-04-24T05:28:40.092Z,97104.50
2023-04-24T05:31:09.436Z,97104.72
2023-04-24T05:33:39.475Z,97105.91
2023-04-24T05:36:11.076Z,97104.09
2023-04-24T05:38:41.548Z,97098.06
2023-04-24T05:41:12.722Z,97102.88
2023-04-24T05:43:42.108Z,97106.91
2023-04-24T05:46:11.994Z,97111.72
2023-04-24T05:48:41.583Z,97107.72
2023-04-24T05:51:14.061Z,97108.09
2023-04-24T05:53:43.406Z,97117.75
2023-04-24T05:56:14.737Z,97112.13
2023-04-24T05:58:44.228Z,97118.75
2023-04-24T06:01:13.832Z,97126.97
2023-04-24T06:03:44.293Z,97124.94
2023-04-24T06:06:13.969Z,97129.38
2023-04-24T06:08:45.157Z,97137.03
2023-04-24T06:11:16.017Z,97138.22
2023-04-24T06:13:45.918Z,97132.59
2023-04-24T06:16:15.033Z,97142.06
2023-04-24T06:18:44.443Z,97132.59
2023-04-24T06:21:15.520Z,97121.53
2023-04-24T06:23:44.404Z,97130.59
2023-04-24T06:26:14.362Z,97124.16
2023-04-24T06:28:44.784Z,97124.56
2023-04-24T06:31:14.866Z,97127.75
2023-04-24T06:33:46.102Z,97128.34
2023-04-24T06:36:15.602Z,97143.63
2023-04-24T06:38:44.570Z,97135.78
2023-04-24T06:41:17.258Z,97137.34
2023-04-24T06:43:47.560Z,97135.72
2023-04-24T06:46:18.055Z,97139.72
2023-04-24T06:48:48.184Z,97144.16
2023-04-24T06:51:19.634Z,97140.97
2023-04-24T06:53:49.589Z,97142.56
2023-04-24T06:56:21.865Z,97148.19
2023-04-24T06:58:51.634Z,97159.25
2023-04-24T07:01:21.943Z,97159.47
2023-04-24T07:03:51.156Z,97157.69
2023-04-24T07:06:23.044Z,97158.31
2023-04-24T07:08:52.705Z,97159.09
2023-04-24T07:11:23.251Z,97159.09
2023-04-24T07:13:53.194Z,97163.09
2023-04-24T07:16:22.259Z,97161.50
2023-04-24T07:18:53.151Z,97159.69
2023-04-24T07:21:22.495Z,97172.53
2023-04-24T07:23:53.033Z,97166.13
2023-04-24T07:26:24.604Z,97171.72
2023-04-24T07:28:54.568Z,97170.13
2023-04-24T07:31:23.672Z,97173.72
2023-04-24T07:33:53.871Z,97181.56
2023-04-24T07:36:23.236Z,97176.75
2023-04-24T07:38:52.890Z,97186.78
2023-04-24T07:41:25.841Z,97189.38
2023-04-24T07:43:54.920Z,97194.41
2023-04-24T07:46:25.859Z,97196.03
2023-04-24T07:49:09.174Z,97204.50
2023-04-24T07:51:43.137Z,97208.94
2023-04-24T07:54:12.233Z,97224.19
2023-04-24T07:56:44.553Z,97230.84
2023-04-24T07:59:15.018Z,97234.66
2023-04-24T08:01:44.444Z,97241.28
2023-04-24T08:04:15.634Z,97249.94
2023-04-24T08:06:45.600Z,97248.31
2023-04-24T08:09:15.083Z,97241.88
2023-04-24T08:11:46.694Z,97247.91
2023-04-24T08:14:17.201Z,97249.72
2023-04-24T08:16:46.728Z,97249.72
2023-04-24T08:19:16.131Z,97253.72
2023-04-24T08:21:45.923Z,97248.91
2023-04-24T08:24:15.407Z,97256.97
2023-04-24T08:26:46.708Z,97255.75
2023-04-24T08:29:15.689Z,97267.22
2023-04-24T08:31:44.723Z,97267.22
2023-04-24T08:34:14.121Z,97268.41
2023-04-24T08:36:47.509Z,97270.03
2023-04-24T08:39:17.681Z,97265.22
2023-04-24T08:41:56.442Z,97275.66
2023-04-24T08:44:25.486Z,97277.25
2023-04-24T08:46:56.636Z,97281.88
2023-04-24T08:49:29.634Z,97279.44
2023-04-24T08:52:00.799Z,97278.03
2023-04-24T08:54:31.225Z,97283.69
2023-04-24T08:57:05.207Z,97286.69
2023-04-24T08:59:34.929Z,97284.09
2023-04-24T09:02:07.558Z,97287.69
2023-04-24T09:04:37.899Z,97281.47
2023-04-24T09:07:09.155Z,97294.53
2023-04-24T09:09:40.500Z,97298.75
2023-04-24T09:12:11.647Z,97299.75
2023-04-24T09:14:46.680Z,97295.53
2023-04-24T09:17:16.375Z,97294.13
2023-04-24T09:19:46.282Z,97294.50
2023-04-24T09:22:16.641Z,97295.31
2023-04-24T09:24:47.860Z,97294.91
2023-04-24T09:27:20.545Z,97287.28
2023-04-24T09:29:57.004Z,97295.31
2023-04-24T09:32:28.726Z,97302.53
2023-04-24T09:35:13.223Z,97299.94
2023-04-24T09:37:46.056Z,97312.97
2023-04-24T09:40:19.484Z,97312.59
2023-04-24T09:42:57.067Z,97304.16
2023-04-24T09:45:30.822Z,97317.63
2023-04-24T09:47:59.778Z,97321.03
2023-04-24T09:50:29.652Z,97321.03
2023-04-24T09:53:05.857Z,97323.66
2023-04-24T09:55:36.036Z,97327.88
2023-04-24T09:58:06.459Z,97326.66
2023-04-24T10:00:36.671Z,97328.28
2023-04-24T10:03:08.476Z,97325.25
2023-04-24T10:05:41.363Z,97327.88
2023-04-24T10:08:14.779Z,97340.34
2023-04-24T10:10:48.114Z,97331.69
2023-04-24T10:13:20.053Z,97342.53
2023-04-24T10:15:51.839Z,97339.91
2023-04-24T10:18:23.792Z,97338.69
2023-04-24T10:20:56.802Z,97352.38
2023-04-24T10:23:28.541Z,97346.91
2023-04-24T10:25:58.270Z,97354.56
2023-04-24T10:28:31.123Z,97346.50
2023-04-24T10:31:00.871Z,97347.94
2023-04-24T10:33:32.304Z,97347.91
2023-04-24T10:36:03.305Z,97355.16
2023-04-24T10:38:34.317Z,97361.97
2023-04-24T10:41:17.014Z,97365.00
2023-04-24T10:43:50.233Z,97371.41
2023-04-24T10:46:23.180Z,97385.47
2023-04-24T10:48:57.146Z,97384.91
2023-04-24T10:51:44.829Z,97386.94
2023-04-24T10:54:26.931Z,97393.38
2023-04-24T10:57:16.909Z,97407.06
2023-04-24T10:59:48.679Z,97414.09
2023-04-24T11:02:20.247Z,97410.28
2023-04-24T11:04:53.509Z,97409.47
2023-04-24T11:07:24.878Z,97403.03
2023-04-24T11:10:03.769Z,97410.44
2023-04-24T11:12:37.559Z,97410.22
2023-04-24T11:15:18.259Z,97407.38
2023-04-24T11:17:47.835Z,97414.00
2023-04-24T11:20:28.640Z,97413.81
2023-04-24T11:23:07.116Z,97416.81
2023-04-24T11:25:38.309Z,97426.88
2023-04-24T11:28:09.062Z,97421.63
2023-04-24T11:30:44.958Z,97427.47
2023-04-24T11:33:22.526Z,97429.03
2023-04-24T11:35:53.655Z,97418.97
2023-04-24T11:38:24.925Z,97436.47
2023-04-24T11:40:55.440Z,97430.47
2023-04-24T11:43:26.742Z,97433.09
2023-04-24T11:45:58.255Z,97427.25
2023-04-24T11:48:28.241Z,97435.06
2023-04-24T11:50:58.180Z,97424.41
2023-04-24T11:53:28.228Z,97430.19
2023-04-24T11:55:59.384Z,97430.38
2023-04-24T11:58:28.616Z,97434.63
2023-04-24T12:01:02.746Z,97434.97
2023-04-24T12:03:33.057Z,97444.03
2023-04-24T12:06:10.145Z,97438.56
2023-04-24T12:08:40.414Z,97436.94
2023-04-24T12:11:10.849Z,97442.41
2023-04-24T12:13:40.736Z,97436.16
2023-04-24T12:16:11.337Z,97447.03
2023-04-24T12:18:46.857Z,97440.53
2023-04-24T12:21:23.079Z,97433.63
2023-04-24T12:23:53.554Z,97441.66
2023-04-24T12:26:24.228Z,97447.34
2023-04-24T12:28:54.118Z,97443.72
2023-04-24T12:31:24.924Z,97449.31
2023-04-24T12:33:54.696Z,97445.91
2023-04-24T12:36:25.307Z,97448.09
2023-04-24T12:38:59.290Z,97449.50
2023-04-24T12:41:30.014Z,97442.81
2023-04-24T12:44:00.161Z,97448.31
2023-04-24T12:46:31.030Z,97446.09
2023-04-24T12:49:00.981Z,97452.53
2023-04-24T12:51:32.062Z,97457.34
2023-04-24T12:54:02.494Z,97449.88
2023-04-24T12:56:32.375Z,97442.34
2023-04-24T12:59:02.493Z,97448.78
2023-04-24T13:01:33.887Z,97453.63
2023-04-24T13:04:03.893Z,97446.78
2023-04-24T13:06:34.615Z,97463.69
2023-04-24T13:09:04.751Z,97451.59
2023-04-24T13:11:33.968Z,97455.25
2023-04-24T13:14:03.957Z,97454.50
2023-04-24T13:16:35.432Z,97463.75
2023-04-24T13:19:04.760Z,97454.03
2023-04-24T13:21:33.662Z,97459.22
2023-04-24T13:24:02.788Z,97455.16
2023-04-24T13:26:32.686Z,97449.44
2023-04-24T13:29:01.055Z,97448.19
2023-04-24T13:31:29.548Z,97452.75
2023-04-24T13:34:00.423Z,97458.31
2023-04-24T13:36:29.731Z,97449.69
2023-04-24T13:39:00.942Z,97451.75
2023-04-24T13:41:29.935Z,97448.06
2023-04-24T13:43:59.855Z,97450.63
2023-04-24T13:46:29.026Z,97444.81
2023-04-24T13:49:00.437Z,97439.50
2023-04-24T13:51:30.071Z,97433.81
2023-04-24T13:53:59.594Z,97430.75
2023-04-24T13:56:30.083Z,97434.78
2023-04-24T13:58:59.077Z,97440.50
2023-04-24T14:01:28.076Z,97443.28
2023-04-24T14:03:59.843Z,97435.03
2023-04-24T14:06:28.989Z,97437.25
2023-04-24T14:08:57.902Z,97424.88
2023-04-24T14:11:28.959Z,97418.34
2023-04-24T14:13:58.886Z,97411.69
2023-04-24T14:16:28.451Z,97411.28
2023-04-24T14:18:57.829Z,97402.09
2023-04-24T14:21:29.959Z,97403.44
2023-04-24T14:24:00.469Z,97407.63
2023-04-24T14:26:30.024Z,97401.09
2023-04-24T14:29:11.560Z,97401.00
2023-04-24T14:31:44.793Z,97389.31
2023-04-24T14:34:14.044Z,97394.25
2023-04-24T14:36:44.720Z,97395.28
2023-04-24T14:39:13.761Z,97401.25
2023-04-24T14:41:42.643Z,97402.84
2023-04-24T14:44:12.097Z,97404.47
2023-04-24T14:46:42.308Z,97408.06
2023-04-24T14:49:13.291Z,97397.09
2023-04-24T14:51:44.736Z,97401.19
2023-04-24T14:54:14.682Z,97401.53
2023-04-24T14:56:45.924Z,97406.63
2023-04-24T14:59:15.910Z,97402.88
2023-04-24T15:01:45.491Z,97393.09
2023-04-24T15:04:16.404Z,97396.88
2023-04-24T15:06:48.004Z,97383.91
2023-04-24T15:09:16.919Z,97398.88
2023-04-24T15:11:46.791Z,97399.75
2023-04-24T15:14:17.562Z,97402.25
2023-04-24T15:16:46.739Z,97402.84
2023-04-24T15:19:16.350Z,97397.00
2023-04-24T15:21:47.757Z,97393.94
2023-04-24T15:24:17.104Z,97395.91
2023-04-24T15:26:47.047Z,97398.63
2023-04-24T15:29:16.536Z,97405.78
2023-04-24T15:31:46.603Z,97403.16
2023-04-24T15:34:16.607Z,97405.56
2023-04-24T15:36:48.590Z,97409.66
2023-04-24T15:39:17.591Z,97412.78
2023-04-24T15:41:47.736Z,97418.47
2023-04-24T15:44:17.891Z,97423.28
2023-04-24T15:46:48.012Z,97431.88
2023-04-24T15:49:17.440Z,97425.91
2023-04-24T15:51:48.986Z,97440.16
2023-04-24T15:54:17.362Z,97428.88
2023-04-24T15:56:47.448Z,97450.13
2023-04-24T15:59:17.983Z,97459.44
2023-04-24T16:01:48.065Z,97468.03
2023-04-24T16:04:17.202Z,97479.19
2023-04-24T16:06:48.494Z,97475.34
2023-04-24T16:09:16.989Z,97483.69
2023-04-24T16:11:47.071Z,97478.84
2023-04-24T16:14:16.025Z,97470.22
2023-04-24T16:16:45.141Z,97471.22
2023-04-24T16:19:15.665Z,97485.38
2023-04-24T16:21:46.521Z,97479.53
2023-04-24T16:24:15.084Z,97482.13
2023-04-24T16:26:44.612Z,97480.97
2023-04-24T16:29:16.268Z,97471.72
2023-04-24T16:31:45.621Z,97481.78
2023-04-24T16:34:16.051Z,97493.06
2023-04-24T16:36:47.046Z,97498.31
2023-04-24T16:39:17.445Z,97497.09
2023-04-24T16:41:47.468Z,97493.47
2023-04-24T16:44:16.596Z,97495.72
2023-04-24T16:46:45.643Z,97495.09
2023-04-24T16:49:16.607Z,97495.72
2023-04-24T16:51:48.103Z,97494.72
2023-04-24T16:54:17.896Z,97494.50
2023-04-24T16:56:47.764Z,97489.50
2023-04-24T16:59:18.394Z,97494.34
2023-04-24T17:01:47.247Z,97492.72
2023-04-24T17:04:16.976Z,97489.09
2023-04-24T17:06:48.415Z,97485.06
2023-04-24T17:09:18.403Z,97493.13
2023-04-24T17:11:47.994Z,97493.91
2023-04-24T17:14:18.116Z,97505.56
2023-04-24T17:16:47.089Z,97496.97
2023-04-24T17:19:16.111Z,97502.38
2023-04-24T17:21:47.548Z,97507.19
2023-04-24T17:24:17.989Z,97507.81
2023-04-24T17:26:47.365Z,97496.31
2023-04-24T17:29:16.839Z,97495.53
2023-04-24T17:31:46.265Z,97508.41
2023-04-24T17:34:16.229Z,97503.56
2023-04-24T17:36:47.705Z,97508.81
2023-04-24T17:39:17.250Z,97506.59
2023-04-24T17:41:47.940Z,97505.00
2023-04-24T17:44:17.584Z,97503.19
2023-04-24T17:46:46.789Z,97503.19
2023-04-24T17:49:16.155Z,97496.75
2023-04-24T17:51:47.501Z,97501.16
2023-04-24T17:54:18.251Z,97500.75
2023-04-24T17:56:48.946Z,97503.59
2023-04-24T17:59:19.442Z,97497.56
2023-04-24T18:01:49.609Z,97487.66
2023-04-24T18:04:19.064Z,97483.88
2023-04-24T18:06:51.223Z,97482.25
2023-04-24T18:09:21.121Z,97481.84
2023-04-24T18:11:51.755Z,97484.06
2023-04-24T18:14:21.743Z,97482.66
2023-04-24T18:16:51.829Z,97489.50
2023-04-24T18:19:20.762Z,97486.28
2023-04-24T18:21:51.634Z,97495.53
2023-04-24T18:24:22.828Z,97489.72
2023-04-24T18:26:51.868Z,97501.59
2023-04-24T18:29:21.716Z,97500.97
2023-04-24T18:31:51.064Z,97497.19
2023-04-24T18:34:20.235Z,97489.53
2023-04-24T18:36:50.769Z,97500.00
2023-04-24T18:39:21.208Z,97504.63
2023-04-24T18:41:52.458Z,97501.41
2023-04-24T18:44:21.807Z,97505.22
2023-04-24T18:46:51.365Z,97510.47
2023-04-24T18:49:21.392Z,97512.47
2023-04-24T18:51:54.629Z,97517.91
2023-04-24T18:54:24.918Z,97515.69
2023-04-24T18:56:54.679Z,97520.13
2023-04-24T18:59:24.876Z,97519.31
2023-04-24T19:01:54.901Z,97522.50
2023-04-24T19:04:24.420Z,97520.94
2023-04-24T19:06:54.165Z,97527.56
2023-04-24T19:09:23.003Z,97526.94
2023-04-24T19:11:52.376Z,97524.53
2023-04-24T19:14:23.231Z,97532.16
2023-04-24T19:16:53.095Z,97530.56
2023-04-24T19:19:24.530Z,97536.00
2023-04-24T19:21:56.464Z,97535.41
2023-04-24T19:24:28.980Z,97545.03
2023-04-24T19:26:59.440Z,97544.22
2023-04-24T19:29:28.653Z,97557.72
2023-04-24T19:31:58.820Z,97557.91
2023-04-24T19:34:28.166Z,97568.56
2023-04-24T19:36:59.349Z,97568.75
2023-04-24T19:39:32.417Z,97567.53
2023-04-24T19:42:05.722Z,97575.19
2023-04-24T19:44:37.623Z,97571.34
2023-04-24T19:47:06.261Z,97574.13
2023-04-24T19:49:36.057Z,97574.72
2023-04-24T19:52:08.367Z,97560.97
2023-04-24T19:54:38.137Z,97572.03
2023-04-24T19:57:07.417Z,97563.84
2023-04-24T19:59:36.801Z,97572.28
2023-04-24T20:02:06.986Z,97572.03
2023-04-24T20:04:37.061Z,97565.59
2023-04-24T20:07:08.899Z,97571.00
2023-04-24T20:09:37.824Z,97570.00
2023-04-24T20:12:08.260Z,97574.59
2023-04-24T20:14:37.913Z,97565.34
2023-04-24T20:17:08.259Z,97564.94
2023-04-24T20:19:38.369Z,97567.16
2023-04-24T20:22:10.357Z,97561.34
2023-04-24T20:24:40.527Z,97558.09
2023-04-24T20:27:12.436Z,97557.13
2023-04-24T20:29:41.368Z,97556.50
2023-04-24T20:32:11.205Z,97560.91
2023-04-24T20:34:40.872Z,97564.91
2023-04-24T20:37:13.408Z,97568.13
2023-04-24T20:39:44.592Z,97564.28
2023-04-24T20:42:14.343Z,97565.69
2023-04-24T20:44:43.255Z,97566.25
2023-04-24T20:47:14.010Z,97568.84
2023-04-24T20:49:43.467Z,97568.44
2023-04-24T20:52:15.405Z,97573.50
2023-04-24T20:54:44.779Z,97574.47
2023-04-24T20:57:14.970Z,97572.06
2023-04-24T20:59:44.170Z,97573.84
2023-04-24T21:02:13.471Z,97580.28
2023-04-24T21:04:42.462Z,97575.06
2023-04-24T21:07:14.515Z,97569.84
2023-04-24T21:09:43.894Z,97564.81
2023-04-24T21:12:13.940Z,97569.22
2023-04-24T21:14:44.569Z,97571.00
2023-04-24T21:17:14.154Z,97562.34
2023-04-24T21:19:44.387Z,97564.75
2023-04-24T21:22:16.101Z,97562.53
2023-04-24T21:24:46.575Z,97557.31
2023-04-24T21:27:16.139Z,97565.16
2023-04-24T21:29:45.414Z,97565.53
2023-04-24T21:32:16.316Z,97559.47
2023-04-24T21:34:45.886Z,97550.66
2023-04-24T21:37:16.433Z,97549.03
2023-04-24T21:39:46.353Z,97544.84
2023-04-24T21:42:17.415Z,97545.19
2023-04-24T21:44:46.446Z,97542.16
2023-04-24T21:47:15.930Z,97545.41
2023-04-24T21:49:44.913Z,97546.94
2023-04-24T21:52:15.302Z,97545.97
2023-04-24T21:54:44.291Z,97540.16
2023-04-24T21:57:12.909Z,97545.75
2023-04-24T21:59:42.880Z,97548.34
2023-04-24T22:02:12.456Z,97545.13
2023-04-24T22:04:41.574Z,97544.13
2023-04-24T22:07:10.585Z,97545.53
2023-04-24T22:09:42.067Z,97548.78
2023-04-24T22:12:12.158Z,97554.19
2023-04-24T22:14:41.567Z,97551.38
2023-04-24T22:17:11.552Z,97547.34
2023-04-24T22:19:42.525Z,97549.13
2023-04-24T22:22:12.042Z,97550.59
2023-04-24T22:24:42.749Z,97542.53
2023-04-24T22:27:12.271Z,97544.31
2023-04-24T22:29:43.663Z,97541.53
2023-04-24T22:32:13.163Z,97539.91
2023-04-24T22:34:42.537Z,97535.88
2023-04-24T22:37:11.463Z,97535.06
2023-04-24T22:39:42.903Z,97531.66
2023-04-24T22:42:12.800Z,97533.44
2023-04-24T22:44:43.273Z,97542.91
2023-04-24T22:47:12.101Z,97531.25
2023-04-24T22:49:43.385Z,97522.44
2023-04-24T22:52:15.088Z,97522.44
2023-04-24T22:54:46.659Z,97518.03
2023-04-24T22:57:16.481Z,97516.03
2023-04-24T22:59:44.986Z,97522.06
2023-04-24T23:02:13.657Z,97525.06
2023-04-24T23:04:42.200Z,97520.66
2023-04-24T23:07:10.699Z,97520.81
2023-04-24T23:09:39.117Z,97519.59
2023-04-24T23:12:09.069Z,97522.03
2023-04-24T23:14:37.679Z,97520.00
2023-04-24T23:17:06.196Z,97515.44
2023-04-24T23:19:35.128Z,97515.59
2023-04-24T23:22:03.726Z,97512.56
2023-04-24T23:24:32.306Z,97515.19
2023-04-24T23:27:01.842Z,97514.00
2023-04-24T23:29:31.711Z,97514.78
2023-04-24T23:32:01.907Z,97515.19
2023-04-24T23:34:30.555Z,97512.56
2023-04-24T23:36:59.086Z,97517.41
2023-04-24T23:39:27.581Z,97513.00
2023-04-24T23:41:56.114Z,97514.38
2023-04-24T23:44:24.538Z,97510.78
2023-04-24T23:46:54.374Z,97514.19
2023-04-24T23:49:22.823Z,97516.38
2023-04-24T23:51:52.344Z,97505.13
2023-04-24T23:54:21.172Z,97505.13
2023-04-24T23:56:49.934Z,97499.31
2023-04-24T23:59:20.710Z,97491.88
